Pistol River, Oregon
Current Conditions -  °F | °C
As of 2:16 AM on Saturday 20 Dec 2014 (Local Time) from KBOK Reporting Station
Moderate Rain Moderate Rain  
Wind Chill: 52°   Ceiling: 100
Heat Index: 52°   Visibility: 1.5mi
Dew Point: 52°   Wind: 10mph
Humidity: 100%   Direction: 150°SSE
Pressure: 30.02"   Gusts: NA
Location:  42.5771°N, 124.359°W
Report Text: KBOK 201016Z AUTO 15009KT 1 1/2SM RA BR OVC001 11/11 A3002 RMK AO2 P0006
Loading
Personal Weather Stations






























Interactive Weather Map New forecast layout! Learn more

10-Day Weather Forecast

Advertisements
Track Severe Weather on mobile